Terminal Aerodrome Forecast
Issued by NWS Cleveland, OH

Home | Current Version | Previous Version | Graphics & Text | Print | Product List | Glossary On
Versions: 1 2 3 4 5 6 7 8 9 10 11 12 13 14 15 16 17 18 19 20
000
FTUS41 KCLE 142300
TAFCAK
TAF
KCAK 142340Z 1500/1524 VRB03KT P6SM SKC
     FM150900 00000KT P6SM SCT250
      TEMPO 1510/1513 4SM BR
     FM151400 20008KT P6SM SCT100 BKN250
     FM152300 22008KT P6SM -RA BKN045 OVC100=

USA.gov is the U.S. government's official web portal to all federal, state and local government web resources and services.